METAR AND TAF INFORMATION
METAR FOR ENRO
ADDS - METARS form results

(1023 UTC 03 October 2022)
Data provider http://aviationweather.gov/metar/data/
 
METAR text: ENRO 031020Z 23004KT 200V260 9999 SCT036 06/05 Q1015
Conditions at: ENRO (ROROS AIRPORT , NO) observed 1020 UTC 03 October 2022
Temperature: 6.0°C (43°F)
Dewpoint: 5.0°C (41°F) [RH = 93%]
Pressure (altimeter): 29.97 inches Hg (1015.0 mb)
Winds: from the SW (230 degrees) at 5 MPH (4 knots; 2.1 m/s)
Visibility: 6 or more miles (10+ km)
Ceiling: at least 12,000 feet AGL
Clouds: scattered clouds at 3600 feet AGL
Weather: no significant weather observed at this time

METAR text: ENRO 030950Z 23004KT 200V260 9999 FEW015 SCT036 06/05 Q1015
Conditions at: ENRO (ROROS AIRPORT , NO) observed 0950 UTC 03 October 2022
Temperature: 6.0°C (43°F)
Dewpoint: 5.0°C (41°F) [RH = 93%]
Pressure (altimeter): 29.97 inches Hg (1015.0 mb)
Winds: from the SW (230 degrees) at 5 MPH (4 knots; 2.1 m/s)
Visibility: 6 or more miles (10+ km)
Ceiling: at least 12,000 feet AGL
Clouds: few clouds at 1500 feet AGL
scattered clouds at 3600 feet AGL
Weather: no significant weather observed at this time

Forecast for: ENRO (ROROS AIRPORT , NO)
Text: TAF ENRO 030800Z 0309/0318 23006KT 0500 FG VV001
Forecast period: 0900 to 1800 UTC 03 October 2022
Forecast type: FROM: standard forecast or significant change
Winds: from the SW (230 degrees) at 7 MPH (6 knots; 3.1 m/s)
Visibility: 0.31 miles (0.50 km)
Ceiling: indefinite ceiling with vertical visibility of 100 feet AGL
Clouds: obscured sky
Weather: FG  (fog)
Text: BECMG 0309/0311 31010KT 9999 FEW015 BKN040
Forecast period: 0900 to 1800 UTC 03 October 2022
Forecast type: BECOMING: Conditions expected to become as follows by 1100 UTC 03 October 2022
Winds: from the NW (310 degrees) at 12 MPH (10 knots; 5.1 m/s)
Visibility: 6 or more miles (10+ km)
Ceiling: 4000 feet AGL
Clouds: few clouds at 1500 feet AGL
broken clouds at 4000 feet AGL
Weather: FG  (fog)

 AIRPORT MAP

 RUNWAY INFORMATION
Runway 14 Runway length 5643 ft Runway width 131 ft
Runway elevation 2051 ft Runway displaced threshold 197 ft Runway heading 136
Runway 32 Runway length 5643 ft Runway width 131 ft
Runway elevation 2051 ft Runway displaced threshold 459 ft Runway heading 316

 AIRPORT FREQUENCIES
Type TWR Name TWR Frequency 120.4 MHZ

 AIRPORT NEAR NAVIGATION AIDS
Type NDB Name Rambu Frequency 352 KHZ





Powered by Virtual Airlines Manager

Maps by Rafael Santos